createdAt,value
2019-03-19T00:00:03.848Z,1021.71
2019-03-19T00:01:03.825Z,1021.67
2019-03-19T00:02:03.663Z,1021.70
2019-03-19T00:03:03.581Z,1021.65
2019-03-19T00:04:10.533Z,1021.65
2019-03-19T00:05:03.398Z,1021.64
2019-03-19T00:06:03.343Z,1021.59
2019-03-19T00:07:03.220Z,1021.66
2019-03-19T00:08:03.161Z,1021.66
2019-03-19T00:09:03.060Z,1021.63
2019-03-19T00:10:03.987Z,1021.69
2019-03-19T00:11:02.869Z,1021.67
2019-03-19T00:12:02.872Z,1021.66
2019-03-19T00:13:02.693Z,1021.63
2019-03-19T00:14:02.617Z,1021.66
2019-03-19T00:15:02.511Z,1021.62
2019-03-19T00:16:02.488Z,1021.65
2019-03-19T00:17:02.348Z,1021.62
2019-03-19T00:18:02.274Z,1021.63
2019-03-19T00:19:02.173Z,1021.59
2019-03-19T00:20:02.111Z,1021.66
2019-03-19T00:21:02.024Z,1021.65
2019-03-19T00:22:01.899Z,1021.64
2019-03-19T00:23:01.805Z,1021.65
2019-03-19T00:24:01.733Z,1021.66
2019-03-19T00:25:01.759Z,1021.64
2019-03-19T00:26:01.541Z,1021.61
2019-03-19T00:27:01.449Z,1021.65
2019-03-19T00:28:01.447Z,1021.69
2019-03-19T00:29:01.292Z,1021.72
2019-03-19T00:30:01.259Z,1021.77
2019-03-19T00:31:01.104Z,1021.75
2019-03-19T00:32:02.116Z,1021.76
2019-03-19T00:33:00.924Z,1021.78
2019-03-19T00:34:00.846Z,1021.77
2019-03-19T00:35:00.784Z,1021.74
2019-03-19T00:36:00.655Z,1021.74
2019-03-19T00:37:00.576Z,1021.72
2019-03-19T00:38:00.597Z,1021.74
2019-03-19T00:39:00.402Z,1021.69
2019-03-19T00:40:00.353Z,1021.69
2019-03-19T00:41:00.311Z,1021.68
2019-03-19T00:42:00.128Z,1021.72
2019-03-19T00:43:01.141Z,1021.69
2019-03-19T00:43:59.956Z,1021.68
2019-03-19T00:44:59.976Z,1021.71
2019-03-19T00:45:59.770Z,1021.73
2019-03-19T00:46:59.736Z,1021.80
2019-03-19T00:47:59.632Z,1021.75
2019-03-19T00:48:59.503Z,1021.77
2019-03-19T00:49:59.478Z,1021.72
2019-03-19T00:50:59.324Z,1021.77
2019-03-19T00:51:59.243Z,1021.79
2019-03-19T00:52:59.268Z,1021.76
2019-03-19T00:53:59.061Z,1021.78
2019-03-19T00:54:58.981Z,1021.77
2019-03-19T00:55:58.978Z,1021.77
2019-03-19T00:56:58.793Z,1021.78
2019-03-19T00:57:58.740Z,1021.82
2019-03-19T00:58:58.695Z,1021.81
2019-03-19T00:59:58.540Z,1021.85
2019-03-19T01:00:58.440Z,1021.84
2019-03-19T01:01:58.402Z,1021.86
2019-03-19T01:02:58.268Z,1021.91
2019-03-19T01:03:58.175Z,1021.90
2019-03-19T01:04:58.101Z,1021.94
2019-03-19T01:05:58.020Z,1021.97
2019-03-19T01:06:57.912Z,1022.00
2019-03-19T01:07:57.821Z,1021.99
2019-03-19T01:08:57.729Z,1021.96
2019-03-19T01:09:57.674Z,1021.98
2019-03-19T01:10:57.557Z,1022.01
2019-03-19T01:11:57.466Z,1021.97
2019-03-19T01:12:57.456Z,1021.97
2019-03-19T01:13:57.291Z,1021.94
2019-03-19T01:14:57.213Z,1021.95
2019-03-19T01:15:57.170Z,1021.93
2019-03-19T01:16:57.019Z,1021.93
2019-03-19T01:17:56.979Z,1021.95
2019-03-19T01:18:56.842Z,1021.94
2019-03-19T01:19:56.821Z,1022.01
2019-03-19T01:20:56.679Z,1022.05
2019-03-19T01:21:56.598Z,1022.08
2019-03-19T01:22:56.487Z,1022.10
2019-03-19T01:23:56.505Z,1022.08
2019-03-19T01:24:56.324Z,1022.05
2019-03-19T01:25:56.288Z,1022.07
2019-03-19T01:26:56.223Z,1022.03
2019-03-19T01:27:56.051Z,1022.03
2019-03-19T01:28:55.956Z,1022.02
2019-03-19T01:29:55.964Z,1022.04
2019-03-19T01:30:55.780Z,1022.09
2019-03-19T01:31:55.742Z,1022.08
2019-03-19T01:32:55.600Z,1022.08
2019-03-19T01:33:55.549Z,1022.08
2019-03-19T01:34:55.436Z,1022.07
2019-03-19T01:35:55.362Z,1022.05
2019-03-19T01:36:55.250Z,1022.00
2019-03-19T01:37:55.173Z,1022.04
2019-03-19T01:38:55.064Z,1022.07
2019-03-19T01:39:54.993Z,1022.04
2019-03-19T01:40:54.984Z,1022.08
2019-03-19T01:41:54.802Z,1022.13
2019-03-19T01:42:54.710Z,1022.14
2019-03-19T01:43:54.699Z,1022.13
2019-03-19T01:44:54.547Z,1022.18
2019-03-19T01:45:54.450Z,1022.18
2019-03-19T01:46:54.411Z,1022.14
2019-03-19T01:47:54.270Z,1022.16
2019-03-19T01:48:54.179Z,1022.17
2019-03-19T01:49:54.158Z,1022.13
2019-03-19T01:50:54.000Z,1022.10
2019-03-19T01:51:53.935Z,1022.07
2019-03-19T01:52:53.825Z,1022.07
2019-03-19T01:53:53.852Z,1022.07
2019-03-19T01:54:53.661Z,1022.05
2019-03-19T01:56:01.152Z,1022.10
2019-03-19T01:56:53.469Z,1022.13
2019-03-19T01:57:53.466Z,1022.20
2019-03-19T01:58:53.289Z,1022.20
2019-03-19T01:59:53.214Z,1022.24
2019-03-19T02:00:53.183Z,1022.29
2019-03-19T02:01:53.023Z,1022.25
2019-03-19T02:02:52.937Z,1022.30
2019-03-19T02:03:52.891Z,1022.30
2019-03-19T02:04:52.772Z,1022.25
2019-03-19T02:05:52.672Z,1022.23
2019-03-19T02:06:52.604Z,1022.26
2019-03-19T02:07:52.489Z,1022.27
2019-03-19T02:08:52.400Z,1022.25
2019-03-19T02:09:52.336Z,1022.32
2019-03-19T02:10:52.249Z,1022.36
2019-03-19T02:11:52.233Z,1022.38
2019-03-19T02:12:52.097Z,1022.42
2019-03-19T02:13:52.044Z,1022.38
2019-03-19T02:14:51.879Z,1022.43
2019-03-19T02:15:51.854Z,1022.41
2019-03-19T02:16:51.691Z,1022.44
2019-03-19T02:17:51.663Z,1022.44
2019-03-19T02:18:51.512Z,1022.46
2019-03-19T02:19:51.499Z,1022.49
2019-03-19T02:20:51.333Z,1022.52
2019-03-19T02:21:51.244Z,1022.47
2019-03-19T02:22:51.181Z,1022.51
2019-03-19T02:23:51.076Z,1022.49
2019-03-19T02:24:50.993Z,1022.52
2019-03-19T02:25:50.932Z,1022.43
2019-03-19T02:26:50.804Z,1022.39
2019-03-19T02:27:50.813Z,1022.37
2019-03-19T02:28:50.621Z,1022.34
2019-03-19T02:29:51.640Z,1022.34
2019-03-19T02:30:50.462Z,1022.34
2019-03-19T02:31:50.426Z,1022.41
2019-03-19T02:32:50.267Z,1022.37
2019-03-19T02:33:50.248Z,1022.39
2019-03-19T02:34:50.089Z,1022.35
2019-03-19T02:35:50.023Z,1022.44
2019-03-19T02:36:49.911Z,1022.38
2019-03-19T02:37:49.852Z,1022.40
2019-03-19T02:38:49.734Z,1022.45
2019-03-19T02:39:49.659Z,1022.42
2019-03-19T02:40:49.575Z,1022.45
2019-03-19T02:41:49.467Z,1022.41
2019-03-19T02:42:49.478Z,1022.45
2019-03-19T02:43:49.289Z,1022.50
2019-03-19T02:44:49.213Z,1022.52
2019-03-19T02:45:49.219Z,1022.57
2019-03-19T02:46:49.018Z,1022.61
2019-03-19T02:47:48.999Z,1022.61
2019-03-19T02:48:48.847Z,1022.62
2019-03-19T02:49:48.808Z,1022.66
2019-03-19T02:50:48.678Z,1022.64
2019-03-19T02:51:48.620Z,1022.62
2019-03-19T02:52:48.484Z,1022.65
2019-03-19T02:53:48.429Z,1022.64
2019-03-19T02:54:48.312Z,1022.73
2019-03-19T02:55:48.271Z,1022.71
2019-03-19T02:56:48.130Z,1022.74
2019-03-19T02:57:48.154Z,1022.78
2019-03-19T02:58:47.951Z,1022.81
2019-03-19T02:59:47.960Z,1022.76
2019-03-19T03:00:47.800Z,1022.78
2019-03-19T03:01:47.691Z,1022.81
2019-03-19T03:02:47.674Z,1022.79
2019-03-19T03:03:47.509Z,1022.83
2019-03-19T03:04:47.416Z,1022.80
2019-03-19T03:05:47.421Z,1022.83
2019-03-19T03:06:47.236Z,1022.88
2019-03-19T03:07:47.177Z,1022.95
2019-03-19T03:08:47.104Z,1022.91
2019-03-19T03:09:46.972Z,1022.98
2019-03-19T03:10:46.909Z,1022.96
2019-03-19T03:11:46.807Z,1022.98
2019-03-19T03:12:46.707Z,1022.99
2019-03-19T03:13:46.637Z,1023.01
2019-03-19T03:14:46.648Z,1023.02
2019-03-19T03:15:46.450Z,1023.02
2019-03-19T03:16:46.353Z,1023.04
2019-03-19T03:17:46.340Z,1023.03
2019-03-19T03:18:46.173Z,1023.03
2019-03-19T03:19:46.080Z,1023.09
2019-03-19T03:20:46.178Z,1023.09
2019-03-19T03:21:45.905Z,1023.10
2019-03-19T03:22:45.816Z,1023.06
2019-03-19T03:23:45.767Z,1023.10
2019-03-19T03:24:45.639Z,1023.09
2019-03-19T03:25:45.564Z,1023.09
2019-03-19T03:26:48.184Z,1023.07
2019-03-19T03:27:45.375Z,1023.03
2019-03-19T03:28:45.284Z,1023.03
2019-03-19T03:29:45.294Z,1023.05
2019-03-19T03:30:45.117Z,1023.07
2019-03-19T03:31:45.009Z,1023.02
2019-03-19T03:32:45.024Z,1023.04
2019-03-19T03:33:44.837Z,1023.03
2019-03-19T03:34:44.819Z,1023.03
2019-03-19T03:35:44.665Z,1022.96
2019-03-19T03:36:44.627Z,1023.03
2019-03-19T03:37:44.474Z,1022.99
2019-03-19T03:38:44.435Z,1023.02
2019-03-19T03:39:44.297Z,1023.01
2019-03-19T03:40:44.228Z,1023.03
2019-03-19T03:41:44.151Z,1023.09
2019-03-19T03:42:44.032Z,1023.11
2019-03-19T03:43:43.945Z,1023.12
2019-03-19T03:44:43.966Z,1023.15
2019-03-19T03:45:43.779Z,1023.16
2019-03-19T03:46:43.674Z,1023.20
2019-03-19T03:47:43.681Z,1023.20
2019-03-19T03:48:43.494Z,1023.19
2019-03-19T03:49:43.408Z,1023.20
2019-03-19T03:50:43.422Z,1023.18
2019-03-19T03:51:43.223Z,1023.22
2019-03-19T03:52:43.143Z,1023.21
2019-03-19T03:53:45.154Z,1023.22
2019-03-19T03:54:42.956Z,1023.23
2019-03-19T03:55:42.887Z,1023.25
2019-03-19T03:56:42.825Z,1023.29
2019-03-19T03:57:42.725Z,1023.29
2019-03-19T03:58:42.608Z,1023.23
2019-03-19T03:59:42.511Z,1023.27
2019-03-19T04:00:42.447Z,1023.30
2019-03-19T04:01:42.371Z,1023.30
2019-03-19T04:02:44.848Z,1023.36
2019-03-19T04:03:42.260Z,1023.33
2019-03-19T04:04:42.067Z,1023.32
2019-03-19T04:05:41.992Z,1023.31
2019-03-19T04:06:41.967Z,1023.30
2019-03-19T04:07:41.806Z,1023.38
2019-03-19T04:08:41.717Z,1023.38
2019-03-19T04:09:41.681Z,1023.36
2019-03-19T04:10:41.543Z,1023.37
2019-03-19T04:11:41.436Z,1023.34
2019-03-19T04:12:41.395Z,1023.30
2019-03-19T04:13:41.272Z,1023.31
2019-03-19T04:14:41.170Z,1023.35
2019-03-19T04:15:41.146Z,1023.37
2019-03-19T04:16:40.992Z,1023.42
2019-03-19T04:17:40.904Z,1023.44
2019-03-19T04:18:40.925Z,1023.43
2019-03-19T04:19:40.729Z,1023.39
2019-03-19T04:20:40.663Z,1023.38
2019-03-19T04:21:41.556Z,1023.40
2019-03-19T04:22:40.460Z,1023.37
2019-03-19T04:23:40.373Z,1023.31
2019-03-19T04:24:40.353Z,1023.35
2019-03-19T04:25:40.189Z,1023.37
2019-03-19T04:26:40.113Z,1023.36
2019-03-19T04:27:42.113Z,1023.38
2019-03-19T04:28:39.917Z,1023.40
2019-03-19T04:29:39.837Z,1023.39
2019-03-19T04:30:39.825Z,1023.39
2019-03-19T04:31:39.670Z,1023.34
2019-03-19T04:32:39.570Z,1023.41
2019-03-19T04:33:39.491Z,1023.39
2019-03-19T04:34:39.385Z,1023.43
2019-03-19T04:35:41.979Z,1023.40
2019-03-19T04:36:39.401Z,1023.47
2019-03-19T04:37:39.121Z,1023.52
2019-03-19T04:38:48.026Z,1023.53
2019-03-19T04:39:38.942Z,1023.50
2019-03-19T04:40:38.849Z,1023.59
2019-03-19T04:41:38.867Z,1023.58
2019-03-19T04:42:38.699Z,1023.59
2019-03-19T04:43:38.582Z,1023.62
2019-03-19T04:44:40.523Z,1023.63
2019-03-19T04:45:38.411Z,1023.68
2019-03-19T04:46:38.331Z,1023.66
2019-03-19T04:47:38.259Z,1023.67
2019-03-19T04:48:38.136Z,1023.68
2019-03-19T04:49:45.033Z,1023.71
2019-03-19T04:50:37.994Z,1023.70
2019-03-19T04:51:37.909Z,1023.66
2019-03-19T04:52:37.776Z,1023.67
2019-03-19T04:53:37.685Z,1023.67
2019-03-19T04:54:37.691Z,1023.67
2019-03-19T04:55:37.514Z,1023.65
2019-03-19T04:56:37.430Z,1023.68
2019-03-19T04:57:37.406Z,1023.72
2019-03-19T04:58:37.238Z,1023.72
2019-03-19T04:59:37.158Z,1023.77
2019-03-19T05:00:37.121Z,1023.73
2019-03-19T05:01:36.981Z,1023.73
2019-03-19T05:02:36.880Z,1023.76
2019-03-19T05:03:36.855Z,1023.76
2019-03-19T05:04:36.705Z,1023.69
2019-03-19T05:05:36.641Z,1023.67
2019-03-19T05:06:36.544Z,1023.65
2019-03-19T05:07:36.439Z,1023.68
2019-03-19T05:08:36.345Z,1023.72
2019-03-19T05:09:36.361Z,1023.68
2019-03-19T05:10:36.169Z,1023.73
2019-03-19T05:11:36.096Z,1023.75
2019-03-19T05:12:36.923Z,1023.75
2019-03-19T05:13:35.994Z,1023.75
2019-03-19T05:14:35.804Z,1023.78
2019-03-19T05:15:35.716Z,1023.76
2019-03-19T05:16:35.726Z,1023.77
2019-03-19T05:17:35.616Z,1023.80
2019-03-19T05:18:35.454Z,1023.80
2019-03-19T05:19:35.416Z,1023.85
2019-03-19T05:20:35.273Z,1023.86
2019-03-19T05:21:35.212Z,1023.80
2019-03-19T05:22:35.090Z,1023.85
2019-03-19T05:23:35.195Z,1023.83
2019-03-19T05:24:34.915Z,1023.84
2019-03-19T05:25:34.998Z,1023.79
2019-03-19T05:26:34.753Z,1023.83
2019-03-19T05:27:37.531Z,1023.88
2019-03-19T05:28:34.616Z,1023.89
2019-03-19T05:29:34.469Z,1023.93
2019-03-19T05:30:34.374Z,1023.90
2019-03-19T05:31:34.399Z,1023.89
2019-03-19T05:32:34.196Z,1023.87
2019-03-19T05:33:34.105Z,1023.95
2019-03-19T05:34:34.040Z,1023.90
2019-03-19T05:35:33.939Z,1023.89
2019-03-19T05:36:33.882Z,1023.90
2019-03-19T05:37:33.756Z,1023.89
2019-03-19T05:38:33.711Z,1023.84
2019-03-19T05:39:33.568Z,1023.85
2019-03-19T05:40:33.495Z,1023.85
2019-03-19T05:41:33.406Z,1023.84
2019-03-19T05:42:33.318Z,1023.86
2019-03-19T05:43:33.209Z,1023.88
2019-03-19T05:44:33.126Z,1023.93
2019-03-19T05:45:33.033Z,1023.92
2019-03-19T05:46:32.971Z,1023.99
2019-03-19T05:47:36.980Z,1024.00
2019-03-19T05:48:32.765Z,1023.99
2019-03-19T05:49:32.680Z,1024.06
2019-03-19T05:50:32.598Z,1024.09
2019-03-19T05:51:32.654Z,1024.08
2019-03-19T05:52:34.369Z,1024.07
2019-03-19T05:53:47.068Z,1024.11
2019-03-19T05:54:32.225Z,1024.13
2019-03-19T05:55:32.335Z,1024.14
2019-03-19T05:56:32.053Z,1024.13
2019-03-19T05:57:32.178Z,1024.11
2019-03-19T05:58:31.872Z,1024.14
2019-03-19T05:59:31.791Z,1024.15
2019-03-19T06:00:31.765Z,1024.19
2019-03-19T06:01:31.627Z,1024.20
2019-03-19T06:02:31.522Z,1024.21
2019-03-19T06:03:31.437Z,1024.25
2019-03-19T06:04:31.446Z,1024.23
2019-03-19T06:05:31.239Z,1024.31
2019-03-19T06:06:31.159Z,1024.34
2019-03-19T06:07:31.190Z,1024.35
2019-03-19T06:08:30.976Z,1024.35
2019-03-19T06:09:30.971Z,1024.36
2019-03-19T06:10:30.801Z,1024.39
2019-03-19T06:11:30.780Z,1024.36
2019-03-19T06:12:30.631Z,1024.37
2019-03-19T06:13:32.640Z,1024.41
2019-03-19T06:14:30.437Z,1024.40
2019-03-19T06:15:30.397Z,1024.44
2019-03-19T06:16:30.259Z,1024.45
2019-03-19T06:17:30.241Z,1024.45
2019-03-19T06:18:35.175Z,1024.45
2019-03-19T06:19:29.992Z,1024.48
2019-03-19T06:20:29.921Z,1024.49
2019-03-19T06:21:29.809Z,1024.48
2019-03-19T06:22:29.746Z,1024.52
2019-03-19T06:23:29.741Z,1024.55
2019-03-19T06:24:29.556Z,1024.59
2019-03-19T06:25:31.491Z,1024.60
2019-03-19T06:26:29.374Z,1024.62
2019-03-19T06:27:29.390Z,1024.63
2019-03-19T06:28:29.192Z,1024.55
2019-03-19T06:29:29.105Z,1024.58
2019-03-19T06:30:29.020Z,1024.54
2019-03-19T06:31:28.925Z,1024.56
2019-03-19T06:32:28.848Z,1024.57
2019-03-19T06:33:28.901Z,1024.61
2019-03-19T06:34:28.659Z,1024.64
2019-03-19T06:35:28.567Z,1024.65
2019-03-19T06:36:28.508Z,1024.63
2019-03-19T06:37:28.409Z,1024.65
2019-03-19T06:38:28.304Z,1024.75
2019-03-19T06:39:28.221Z,1024.86
2019-03-19T06:40:28.127Z,1024.87
2019-03-19T06:41:28.036Z,1024.98
2019-03-19T06:42:27.976Z,1025.01
2019-03-19T06:43:27.863Z,1025.05
2019-03-19T06:44:27.796Z,1025.02
2019-03-19T06:45:27.693Z,1024.94
2019-03-19T06:46:27.598Z,1024.93
2019-03-19T06:47:27.531Z,1024.93
2019-03-19T06:48:27.433Z,1024.95
2019-03-19T06:49:27.330Z,1024.95
2019-03-19T06:50:28.181Z,1024.92
2019-03-19T06:51:27.158Z,1024.94
2019-03-19T06:52:27.109Z,1024.98
2019-03-19T06:53:26.993Z,1024.97
2019-03-19T06:54:26.915Z,1025.01
2019-03-19T06:55:26.818Z,1025.04
2019-03-19T06:56:26.729Z,1025.08
2019-03-19T06:57:26.669Z,1025.09
2019-03-19T06:58:26.559Z,1025.13
2019-03-19T06:59:26.468Z,1025.15
2019-03-19T07:00:26.389Z,1025.14
2019-03-19T07:01:26.298Z,1025.13
2019-03-19T07:02:26.262Z,1025.13
2019-03-19T07:03:26.137Z,1025.13
2019-03-19T07:04:26.053Z,1025.18
2019-03-19T07:05:25.958Z,1025.21
2019-03-19T07:06:25.881Z,1025.26
2019-03-19T07:07:25.794Z,1025.30
2019-03-19T07:08:25.719Z,1025.29
2019-03-19T07:09:25.638Z,1025.34
2019-03-19T07:10:25.577Z,1025.41
2019-03-19T07:11:25.452Z,1025.48
2019-03-19T07:12:25.375Z,1025.48
2019-03-19T07:13:25.300Z,1025.49
2019-03-19T07:14:25.200Z,1025.53
2019-03-19T07:15:25.125Z,1025.58
2019-03-19T07:16:25.042Z,1025.53
2019-03-19T07:17:24.953Z,1025.58
2019-03-19T07:18:24.888Z,1025.53
2019-03-19T07:19:24.786Z,1025.57
2019-03-19T07:20:24.757Z,1025.54
2019-03-19T07:21:24.620Z,1025.50
2019-03-19T07:22:24.530Z,1025.53
2019-03-19T07:23:24.473Z,1025.56
2019-03-19T07:24:24.370Z,1025.59
2019-03-19T07:25:24.291Z,1025.62
2019-03-19T07:26:24.200Z,1025.64
2019-03-19T07:27:24.123Z,1025.64
2019-03-19T07:28:24.047Z,1025.67
2019-03-19T07:29:23.949Z,1025.66
2019-03-19T07:30:23.875Z,1025.69
2019-03-19T07:31:30.906Z,1025.71
2019-03-19T07:32:23.710Z,1025.70
2019-03-19T07:33:23.637Z,1025.70
2019-03-19T07:34:23.541Z,1025.70
2019-03-19T07:35:23.473Z,1025.69
2019-03-19T07:36:23.375Z,1025.66
2019-03-19T07:37:23.294Z,1025.66
2019-03-19T07:38:23.231Z,1025.70
2019-03-19T07:39:23.125Z,1025.72
2019-03-19T07:40:23.059Z,1025.76
2019-03-19T07:41:22.966Z,1025.74
2019-03-19T07:42:22.883Z,1025.77
2019-03-19T07:43:23.821Z,1025.74
2019-03-19T07:44:22.722Z,1025.73
2019-03-19T07:45:22.634Z,1025.71
2019-03-19T07:46:22.556Z,1025.71
2019-03-19T07:47:22.477Z,1025.76
2019-03-19T07:48:22.428Z,1025.77
2019-03-19T07:49:22.320Z,1025.80
2019-03-19T07:50:22.233Z,1025.76
2019-03-19T07:51:22.154Z,1025.84
2019-03-19T07:52:22.066Z,1025.85
2019-03-19T07:53:22.000Z,1025.86
2019-03-19T07:54:21.914Z,1025.89
2019-03-19T07:55:21.836Z,1025.87
2019-03-19T07:56:21.750Z,1025.88
2019-03-19T07:57:21.661Z,1025.84
2019-03-19T07:58:32.644Z,1025.89
2019-03-19T07:59:21.505Z,1025.90
2019-03-19T08:00:21.433Z,1025.85
2019-03-19T08:01:21.351Z,1025.92
2019-03-19T08:02:21.272Z,1025.91
2019-03-19T08:03:21.200Z,1025.88
2019-03-19T08:04:21.168Z,1025.84
2019-03-19T08:05:21.024Z,1025.82
2019-03-19T08:06:20.943Z,1025.80
2019-03-19T08:07:20.866Z,1025.75
2019-03-19T08:08:20.802Z,1025.72
2019-03-19T08:09:20.721Z,1025.76
2019-03-19T08:10:20.619Z,1025.81
2019-03-19T08:11:20.547Z,1025.89
2019-03-19T08:12:20.461Z,1025.91
2019-03-19T08:13:20.397Z,1025.91
2019-03-19T08:14:20.305Z,1025.95
2019-03-19T08:15:20.226Z,1025.97
2019-03-19T08:16:27.395Z,1026.07
2019-03-19T08:17:20.081Z,1026.08
2019-03-19T08:18:20.006Z,1026.08
2019-03-19T08:19:19.955Z,1026.15
2019-03-19T08:20:19.826Z,1026.19
2019-03-19T08:21:19.750Z,1026.16
2019-03-19T08:22:19.662Z,1026.19
2019-03-19T08:23:19.599Z,1026.22
2019-03-19T08:24:19.507Z,1026.22
2019-03-19T08:25:19.431Z,1026.21
2019-03-19T08:26:19.358Z,1026.13
2019-03-19T08:27:19.274Z,1026.08
2019-03-19T08:28:19.209Z,1026.05
2019-03-19T08:29:19.126Z,1026.02
2019-03-19T08:30:19.033Z,1026.03
2019-03-19T08:31:18.949Z,1026.01
2019-03-19T08:32:18.890Z,1026.04
2019-03-19T08:33:18.812Z,1026.04
2019-03-19T08:34:18.715Z,1026.09
2019-03-19T08:35:18.639Z,1026.15
2019-03-19T08:36:18.560Z,1026.21
2019-03-19T08:37:18.475Z,1026.27
2019-03-19T08:38:18.399Z,1026.33
2019-03-19T08:39:18.335Z,1026.34
2019-03-19T08:40:18.236Z,1026.35
2019-03-19T08:41:18.168Z,1026.37
2019-03-19T08:42:18.078Z,1026.44
2019-03-19T08:43:20.267Z,1026.44
2019-03-19T08:44:27.265Z,1026.46
2019-03-19T08:45:17.843Z,1026.53
2019-03-19T08:46:17.765Z,1026.62
2019-03-19T08:47:17.684Z,1026.70
2019-03-19T08:48:17.608Z,1026.75
2019-03-19T08:49:17.539Z,1026.77
2019-03-19T08:50:17.452Z,1026.82
2019-03-19T08:51:17.383Z,1026.84
2019-03-19T08:52:17.294Z,1026.90
2019-03-19T08:53:17.217Z,1027.00
2019-03-19T08:54:17.149Z,1027.06
2019-03-19T08:55:17.055Z,1027.14
2019-03-19T08:56:16.986Z,1027.11
2019-03-19T08:57:16.901Z,1027.10
2019-03-19T08:58:16.832Z,1027.20
2019-03-19T08:59:16.765Z,1027.22
2019-03-19T09:00:17.938Z,1027.32
2019-03-19T09:01:16.591Z,1027.40
2019-03-19T09:02:16.527Z,1027.43
2019-03-19T09:03:16.435Z,1027.47
2019-03-19T09:04:16.368Z,1027.60
2019-03-19T09:05:16.286Z,1027.59
2019-03-19T09:06:16.205Z,1027.70
2019-03-19T09:07:16.131Z,1027.82
2019-03-19T09:08:16.046Z,1027.92
2019-03-19T09:09:16.031Z,1027.98
2019-03-19T09:10:15.894Z,1028.02
2019-03-19T09:11:15.814Z,1028.09
2019-03-19T09:12:15.742Z,1028.15
2019-03-19T09:13:15.673Z,1028.12
2019-03-19T09:14:15.597Z,1028.12
2019-03-19T09:15:15.516Z,1028.13
2019-03-19T09:16:15.433Z,1028.14
2019-03-19T09:17:15.369Z,1028.05
2019-03-19T09:18:16.186Z,1028.04
2019-03-19T09:19:15.213Z,1028.08
2019-03-19T09:20:15.128Z,1028.18
2019-03-19T09:21:15.064Z,1028.26
2019-03-19T09:22:15.192Z,1028.15
2019-03-19T09:23:14.902Z,1028.12
2019-03-19T09:24:14.834Z,1028.16
2019-03-19T09:25:14.750Z,1028.17
2019-03-19T09:26:14.670Z,1028.21
2019-03-19T09:27:14.594Z,1028.16
2019-03-19T09:28:14.583Z,1028.06
2019-03-19T09:29:17.050Z,1027.97
2019-03-19T09:30:14.358Z,1027.85
2019-03-19T09:31:14.290Z,1027.89
2019-03-19T09:32:14.212Z,1027.95
2019-03-19T09:33:14.139Z,1027.95
2019-03-19T09:34:14.072Z,1027.79
2019-03-19T09:35:13.985Z,1027.62
2019-03-19T09:36:13.899Z,1027.69
2019-03-19T09:37:13.822Z,1027.69
2019-03-19T09:38:13.760Z,1027.51
2019-03-19T09:39:13.746Z,1027.45
2019-03-19T09:40:13.594Z,1027.52
2019-03-19T09:41:13.528Z,1027.68
2019-03-19T09:42:13.447Z,1027.67
2019-03-19T09:43:13.369Z,1027.48
2019-03-19T09:44:13.314Z,1027.37
2019-03-19T09:45:13.215Z,1027.41
2019-03-19T09:46:13.132Z,1027.33
2019-03-19T09:47:13.067Z,1027.29
2019-03-19T09:48:12.990Z,1027.27
2019-03-19T09:49:12.922Z,1027.23
2019-03-19T09:50:12.858Z,1027.26
2019-03-19T09:51:12.761Z,1027.28
2019-03-19T09:52:12.683Z,1027.28
2019-03-19T09:53:12.600Z,1027.23
2019-03-19T09:54:12.546Z,1027.23
2019-03-19T09:55:12.505Z,1027.16
2019-03-19T09:56:12.412Z,1027.11
2019-03-19T09:57:13.708Z,1027.11
2019-03-19T09:58:12.232Z,1027.08
2019-03-19T09:59:12.158Z,1027.04
2019-03-19T10:00:12.067Z,1027.07
2019-03-19T10:01:11.995Z,1027.09
2019-03-19T10:02:11.914Z,1027.11
2019-03-19T10:03:11.845Z,1027.10
2019-03-19T10:04:11.776Z,1027.18
2019-03-19T10:05:11.685Z,1027.18
2019-03-19T10:06:14.373Z,1027.17
2019-03-19T10:07:11.526Z,1027.13
2019-03-19T10:08:11.458Z,1027.18
2019-03-19T10:09:11.388Z,1027.19
2019-03-19T10:10:11.306Z,1027.18
2019-03-19T10:11:11.277Z,1027.18
2019-03-19T10:12:11.151Z,1027.22
2019-03-19T10:13:11.071Z,1027.26
2019-03-19T10:14:11.029Z,1027.27
2019-03-19T10:15:10.917Z,1027.28
2019-03-19T10:16:10.841Z,1027.27
2019-03-19T10:17:10.776Z,1027.28
2019-03-19T10:18:10.688Z,1027.25
2019-03-19T10:19:10.616Z,1027.25
2019-03-19T10:20:10.553Z,1027.27
2019-03-19T10:21:10.463Z,1027.32
2019-03-19T10:22:10.393Z,1027.29
2019-03-19T10:23:10.319Z,1026.97
2019-03-19T10:24:10.243Z,1027.31
2019-03-19T10:25:10.181Z,1027.26
2019-03-19T10:26:10.079Z,1027.14
2019-03-19T10:27:10.015Z,1027.20
2019-03-19T10:28:09.927Z,1027.29
2019-03-19T10:29:09.861Z,1027.32
2019-03-19T10:30:09.786Z,1027.36
2019-03-19T10:31:09.706Z,1027.43
2019-03-19T10:32:09.638Z,1027.50
2019-03-19T10:33:09.547Z,1027.53
2019-03-19T10:34:09.486Z,1027.57
2019-03-19T10:35:09.415Z,1027.61
2019-03-19T10:36:09.322Z,1027.64
2019-03-19T10:37:09.242Z,1027.71
2019-03-19T10:38:09.174Z,1027.74
2019-03-19T10:39:09.309Z,1027.72
2019-03-19T10:40:09.031Z,1027.60
2019-03-19T10:41:08.950Z,1027.54
2019-03-19T10:42:08.866Z,1027.50
2019-03-19T10:43:08.794Z,1027.43
2019-03-19T10:44:08.722Z,1027.47
2019-03-19T10:45:08.655Z,1027.52
2019-03-19T10:46:08.564Z,1027.53
2019-03-19T10:47:08.494Z,1027.58
2019-03-19T10:48:08.419Z,1027.56
2019-03-19T10:49:08.348Z,1027.30
2019-03-19T10:50:08.277Z,1026.44
2019-03-19T10:51:08.196Z,1027.72
2019-03-19T10:52:08.114Z,1027.67
2019-03-19T10:53:08.042Z,1027.61
2019-03-19T10:54:07.962Z,1027.53
2019-03-19T10:55:07.906Z,1027.54
2019-03-19T10:56:07.809Z,1027.52
2019-03-19T10:57:07.738Z,1027.57
2019-03-19T10:58:11.273Z,1027.54
2019-03-19T10:59:07.580Z,1027.56
2019-03-19T11:00:07.520Z,1027.59
2019-03-19T11:01:07.439Z,1027.59
2019-03-19T11:02:07.358Z,1027.63
2019-03-19T11:03:07.291Z,1027.62
2019-03-19T11:04:07.205Z,1027.56
2019-03-19T11:05:07.150Z,1027.53
2019-03-19T11:06:07.053Z,1027.46
2019-03-19T11:07:06.988Z,1027.40
2019-03-19T11:08:06.917Z,1027.44
2019-03-19T11:09:06.830Z,1027.43
2019-03-19T11:10:06.771Z,1027.42
2019-03-19T11:11:06.679Z,1027.44
2019-03-19T11:12:06.602Z,1027.51
2019-03-19T11:13:06.528Z,1027.50
2019-03-19T11:14:06.450Z,1027.46
2019-03-19T11:15:06.385Z,1027.45
2019-03-19T11:16:06.301Z,1027.48
2019-03-19T11:17:06.231Z,1027.49
2019-03-19T11:18:06.144Z,1027.45
2019-03-19T11:19:06.074Z,1027.46
2019-03-19T11:20:06.008Z,1027.46
2019-03-19T11:21:05.923Z,1027.44
2019-03-19T11:22:05.843Z,1027.47
2019-03-19T11:23:05.765Z,1027.41
2019-03-19T11:24:05.701Z,1027.36
2019-03-19T11:25:05.632Z,1027.30
2019-03-19T11:26:05.542Z,1027.28
2019-03-19T11:27:05.477Z,1027.27
2019-03-19T11:28:05.386Z,1027.27
2019-03-19T11:29:05.311Z,1027.25
2019-03-19T11:30:06.595Z,1027.25
2019-03-19T11:31:05.164Z,1027.28
2019-03-19T11:32:05.085Z,1027.28
2019-03-19T11:33:05.026Z,1027.27
2019-03-19T11:34:04.928Z,1027.26
2019-03-19T11:35:04.878Z,1027.28
2019-03-19T11:36:04.789Z,1027.24
2019-03-19T11:37:04.706Z,1027.10
2019-03-19T11:38:04.627Z,1027.05
2019-03-19T11:39:04.564Z,1027.07
2019-03-19T11:40:04.475Z,1027.05
2019-03-19T11:41:04.415Z,1027.10
2019-03-19T11:42:04.332Z,1027.07
2019-03-19T11:43:04.248Z,1027.05
2019-03-19T11:44:04.174Z,1027.03
2019-03-19T11:45:04.100Z,1026.96
2019-03-19T11:46:04.039Z,1027.03
2019-03-19T11:47:03.955Z,1027.07
2019-03-19T11:48:03.876Z,1027.08
2019-03-19T11:49:03.818Z,1027.04
2019-03-19T11:50:03.725Z,1026.95
2019-03-19T11:51:03.690Z,1026.93
2019-03-19T11:52:03.580Z,1026.94
2019-03-19T11:53:03.522Z,1026.90
2019-03-19T11:54:03.431Z,1026.89
2019-03-19T11:55:03.336Z,1026.85
2019-03-19T11:56:03.273Z,1026.76
2019-03-19T11:57:04.039Z,1026.80
2019-03-19T11:58:03.112Z,1026.78
2019-03-19T11:59:03.048Z,1026.81
2019-03-19T12:00:11.035Z,1026.79
2019-03-19T12:01:02.905Z,1026.81
2019-03-19T12:02:02.813Z,1026.83
2019-03-19T12:03:11.421Z,1026.78
2019-03-19T12:04:02.654Z,1026.84